createdAt,value
2017-09-24T00:01:35.174Z,87.24
2017-09-24T00:04:04.291Z,87.63
2017-09-24T00:06:32.651Z,88.08
2017-09-24T00:09:01.750Z,88.39
2017-09-24T00:11:30.860Z,88.16
2017-09-24T00:13:59.224Z,88.07
2017-09-24T00:16:28.324Z,88.10
2017-09-24T00:18:57.426Z,87.90
2017-09-24T00:21:26.561Z,88.06
2017-09-24T00:23:54.908Z,88.32
2017-09-24T00:26:24.019Z,88.43
2017-09-24T00:28:52.629Z,88.13
2017-09-24T00:31:20.967Z,88.22
2017-09-24T00:33:50.072Z,88.70
2017-09-24T00:36:19.197Z,88.76
2017-09-24T00:38:47.523Z,89.56
2017-09-24T00:41:15.859Z,89.70
2017-09-24T00:43:44.226Z,89.42
2017-09-24T00:46:12.556Z,89.04
2017-09-24T00:48:40.901Z,88.64
2017-09-24T00:51:09.272Z,88.69
2017-09-24T00:53:37.614Z,88.69
2017-09-24T00:56:05.944Z,88.54
2017-09-24T00:58:34.314Z,88.64
2017-09-24T01:01:02.648Z,89.13
2017-09-24T01:03:31.007Z,88.56
2017-09-24T01:05:59.339Z,88.37
2017-09-24T01:08:27.667Z,88.20
2017-09-24T01:10:56.032Z,87.82
2017-09-24T01:13:25.387Z,87.58
2017-09-24T01:15:54.495Z,88.24
2017-09-24T01:18:23.623Z,87.91
2017-09-24T01:20:51.959Z,88.26
2017-09-24T01:23:21.059Z,88.06
2017-09-24T01:25:50.178Z,89.21
2017-09-24T01:28:19.527Z,88.89
2017-09-24T01:30:47.856Z,89.07
2017-09-24T01:33:16.345Z,90.00
2017-09-24T01:35:44.803Z,90.22
2017-09-24T01:38:13.946Z,89.79
2017-09-24T01:40:42.391Z,89.32
2017-09-24T01:43:11.534Z,89.06
2017-09-24T01:45:39.900Z,88.95
2017-09-24T01:48:08.340Z,89.35
2017-09-24T01:50:37.503Z,88.79
2017-09-24T01:53:05.936Z,89.61
2017-09-24T01:55:34.450Z,89.61
2017-09-24T01:58:04.594Z,89.40
2017-09-24T02:00:33.010Z,89.57
2017-09-24T02:03:02.144Z,89.10
2017-09-24T02:05:30.475Z,89.28
2017-09-24T02:07:58.814Z,89.82
2017-09-24T02:10:27.175Z,89.38
2017-09-24T02:12:55.519Z,89.12
2017-09-24T02:15:23.856Z,89.29
2017-09-24T02:17:52.215Z,89.11
2017-09-24T02:20:20.551Z,89.48
2017-09-24T02:22:48.885Z,88.77
2017-09-24T02:25:17.255Z,88.18
2017-09-24T02:27:45.600Z,88.31
2017-09-24T02:30:13.940Z,88.46
2017-09-24T02:32:42.295Z,89.21
2017-09-24T02:35:10.632Z,89.76
2017-09-24T02:37:38.960Z,89.82
2017-09-24T02:40:07.316Z,89.48
2017-09-24T02:42:36.430Z,89.63
2017-09-24T02:45:05.534Z,89.86
2017-09-24T02:47:33.895Z,89.50
2017-09-24T02:50:03.012Z,89.24
2017-09-24T02:52:31.355Z,89.29
2017-09-24T02:54:59.720Z,89.03
2017-09-24T02:57:28.064Z,88.61
2017-09-24T02:59:56.400Z,88.42
2017-09-24T03:02:25.616Z,88.49
2017-09-24T03:04:54.714Z,88.80
2017-09-24T03:07:23.823Z,89.45
2017-09-24T03:09:52.184Z,89.47
2017-09-24T03:12:20.523Z,89.06
2017-09-24T03:14:48.860Z,89.12
2017-09-24T03:17:17.990Z,88.87
2017-09-24T03:19:46.345Z,88.69
2017-09-24T03:22:14.676Z,88.04
2017-09-24T03:24:43.061Z,87.77
2017-09-24T03:27:11.404Z,87.87
2017-09-24T03:29:39.740Z,87.73
2017-09-24T03:32:08.113Z,87.81
2017-09-24T03:34:36.452Z,88.04
2017-09-24T03:37:04.783Z,87.77
2017-09-24T03:39:33.912Z,88.35
2017-09-24T03:42:02.243Z,88.63
2017-09-24T03:44:30.601Z,88.95
2017-09-24T03:46:58.967Z,88.67
2017-09-24T03:49:27.318Z,88.84
2017-09-24T03:51:55.659Z,89.45
2017-09-24T03:54:24.015Z,89.78
2017-09-24T03:56:52.346Z,89.43
2017-09-24T03:59:21.451Z,89.73
2017-09-24T04:01:50.588Z,89.68
2017-09-24T04:04:18.924Z,89.21
2017-09-24T04:06:48.053Z,89.22
2017-09-24T04:09:16.453Z,89.23
2017-09-24T04:11:44.795Z,88.96
2017-09-24T04:14:13.890Z,89.20
2017-09-24T04:16:43.025Z,89.18
2017-09-24T04:19:11.358Z,88.87
2017-09-24T04:21:40.468Z,88.80
2017-09-24T04:24:09.589Z,89.26
2017-09-24T04:26:37.920Z,89.55
2017-09-24T04:29:06.252Z,89.55
2017-09-24T04:31:34.620Z,89.36
2017-09-24T04:34:02.962Z,88.98
2017-09-24T04:36:31.312Z,89.20
2017-09-24T04:38:59.688Z,89.28
2017-09-24T04:41:28.022Z,89.40
2017-09-24T04:43:57.123Z,89.39
2017-09-24T04:46:27.497Z,89.89
2017-09-24T04:48:55.831Z,89.83
2017-09-24T04:51:24.949Z,89.96
2017-09-24T04:53:53.321Z,90.34
2017-09-24T04:56:21.655Z,89.84
2017-09-24T04:58:49.999Z,90.03
2017-09-24T05:01:18.359Z,90.68
2017-09-24T05:03:46.696Z,90.39
2017-09-24T05:06:15.037Z,90.50
2017-09-24T05:08:43.406Z,90.32
2017-09-24T05:11:11.735Z,90.07
2017-09-24T05:13:40.068Z,89.44
2017-09-24T05:16:08.423Z,89.28
2017-09-24T05:18:37.523Z,89.25
2017-09-24T05:21:06.626Z,89.91
2017-09-24T05:23:35.749Z,89.63
2017-09-24T05:26:04.075Z,89.87
2017-09-24T05:28:32.413Z,89.49
2017-09-24T05:31:00.782Z,89.49
2017-09-24T05:33:29.125Z,88.89
2017-09-24T05:35:58.231Z,88.86
2017-09-24T05:38:27.355Z,88.59
2017-09-24T05:40:55.688Z,88.45
2017-09-24T05:43:24.025Z,88.54
2017-09-24T05:45:52.383Z,88.43
2017-09-24T05:48:21.486Z,88.09
2017-09-24T05:50:50.588Z,88.27
2017-09-24T05:53:18.948Z,88.36
2017-09-24T05:55:48.055Z,88.11
2017-09-24T05:58:17.151Z,88.23
2017-09-24T06:00:46.283Z,88.67
2017-09-24T06:03:14.618Z,88.88
2017-09-24T06:05:42.950Z,88.98
2017-09-24T06:08:11.321Z,88.29
2017-09-24T06:10:39.687Z,88.59
2017-09-24T06:13:08.031Z,88.48
2017-09-24T06:15:37.203Z,88.12
2017-09-24T06:18:05.543Z,88.08
2017-09-24T06:20:33.882Z,88.51
2017-09-24T06:23:02.255Z,88.48
2017-09-24T06:25:30.586Z,88.06
2017-09-24T06:27:58.919Z,87.94
2017-09-24T06:30:27.289Z,88.16
2017-09-24T06:32:55.642Z,87.83
2017-09-24T06:35:23.976Z,87.60
2017-09-24T06:37:53.120Z,87.23
2017-09-24T06:40:21.450Z,87.62
2017-09-24T06:42:50.759Z,87.81
2017-09-24T06:45:19.214Z,88.72
2017-09-24T06:47:47.559Z,88.17
2017-09-24T06:50:15.894Z,87.98
2017-09-24T06:52:44.259Z,87.60
2017-09-24T06:55:12.604Z,87.46
2017-09-24T06:57:40.936Z,87.66
2017-09-24T07:00:09.295Z,87.15
2017-09-24T07:02:37.627Z,87.66
2017-09-24T07:05:05.987Z,87.25
2017-09-24T07:07:35.146Z,86.81
2017-09-24T07:10:03.471Z,86.94
2017-09-24T07:12:32.577Z,87.18
2017-09-24T07:15:01.703Z,86.92
2017-09-24T07:17:30.044Z,86.63
2017-09-24T07:19:59.138Z,86.55
2017-09-24T07:22:28.272Z,86.06
2017-09-24T07:24:56.599Z,86.38
2017-09-24T07:27:24.936Z,86.12
2017-09-24T07:29:53.304Z,85.81
2017-09-24T07:32:21.644Z,86.25
2017-09-24T07:34:49.983Z,85.84
2017-09-24T07:37:18.566Z,85.82
2017-09-24T07:39:46.921Z,85.66
2017-09-24T07:42:15.251Z,85.98
2017-09-24T07:44:43.621Z,85.60
2017-09-24T07:47:11.955Z,85.37
2017-09-24T07:49:41.055Z,85.08
2017-09-24T07:52:10.182Z,85.42
2017-09-24T07:54:38.523Z,86.21
2017-09-24T07:57:07.653Z,86.36
2017-09-24T07:59:36.041Z,86.39
2017-09-24T08:02:04.372Z,85.86
2017-09-24T08:04:32.707Z,85.01
2017-09-24T08:07:01.077Z,84.13
2017-09-24T08:09:29.416Z,84.08
2017-09-24T08:11:58.519Z,84.10
2017-09-24T08:14:27.655Z,84.03
2017-09-24T08:16:55.990Z,83.52
2017-09-24T08:19:24.322Z,83.27
2017-09-24T08:21:52.683Z,82.75
2017-09-24T08:24:21.023Z,82.86
2017-09-24T08:26:49.359Z,82.01
2017-09-24T08:29:17.724Z,82.45
2017-09-24T08:31:46.053Z,81.76
2017-09-24T08:34:14.391Z,82.26
2017-09-24T08:36:42.751Z,81.89
2017-09-24T08:39:11.852Z,81.37
2017-09-24T08:41:40.194Z,80.38
2017-09-24T08:44:08.561Z,81.09
2017-09-24T08:46:36.904Z,81.73
2017-09-24T08:49:05.245Z,80.58
2017-09-24T08:51:33.602Z,79.46
2017-09-24T08:54:01.932Z,78.97
2017-09-24T08:56:30.268Z,78.54
2017-09-24T08:58:58.923Z,77.48
2017-09-24T09:01:27.254Z,75.82
2017-09-24T09:03:56.378Z,75.35
2017-09-24T09:06:24.757Z,75.23
2017-09-24T09:08:53.099Z,74.95
2017-09-24T09:11:21.437Z,74.66
2017-09-24T09:13:49.807Z,73.89
2017-09-24T09:16:18.139Z,74.15
2017-09-24T09:18:46.504Z,73.73
2017-09-24T09:21:14.895Z,72.89
2017-09-24T09:23:43.236Z,71.99
2017-09-24T09:26:11.602Z,71.67
2017-09-24T09:28:39.960Z,71.23
2017-09-24T09:31:09.067Z,70.14
2017-09-24T09:33:38.189Z,70.69
2017-09-24T09:36:06.560Z,70.53
2017-09-24T09:38:34.895Z,71.12
2017-09-24T09:41:03.240Z,70.68
2017-09-24T09:43:45.558Z,70.89
2017-09-24T09:59:55.711Z,70.53
2017-09-24T10:02:24.048Z,68.97
2017-09-24T10:04:53.164Z,69.11
2017-09-24T10:07:39.243Z,68.92
2017-09-24T10:10:16.855Z,68.61
2017-09-24T10:12:45.988Z,68.72
2017-09-24T10:15:14.323Z,67.05
2017-09-24T10:17:44.103Z,67.32
2017-09-24T10:20:12.468Z,67.36
2017-09-24T10:22:41.662Z,67.45
2017-09-24T10:25:10.016Z,66.77
2017-09-24T10:27:38.380Z,66.82
2017-09-24T10:30:25.112Z,64.99
2017-09-24T10:32:53.476Z,65.48
2017-09-24T10:35:22.578Z,65.02
2017-09-24T10:37:51.824Z,65.34
2017-09-24T10:40:20.208Z,65.81
2017-09-24T10:42:48.551Z,65.91
2017-09-24T10:45:16.917Z,64.61
2017-09-24T10:47:46.026Z,65.03
2017-09-24T10:50:14.355Z,65.20
2017-09-24T10:52:42.687Z,64.93
2017-09-24T10:55:11.057Z,64.72
2017-09-24T10:57:40.152Z,65.34
2017-09-24T11:00:08.498Z,64.33
2017-09-24T11:02:36.863Z,65.26
2017-09-24T11:05:05.191Z,63.80
2017-09-24T11:07:34.285Z,64.08
2017-09-24T11:10:03.419Z,62.99
2017-09-24T11:12:31.755Z,63.49
2017-09-24T11:15:00.082Z,63.27
2017-09-24T11:17:28.464Z,62.12
2017-09-24T11:19:56.803Z,62.18
2017-09-24T11:22:25.899Z,62.32
2017-09-24T11:24:55.038Z,62.80
2017-09-24T11:27:23.367Z,61.58
2017-09-24T11:29:51.707Z,61.86
2017-09-24T11:32:20.076Z,62.07
2017-09-24T11:34:48.402Z,63.10
2017-09-24T11:37:16.739Z,61.85
2017-09-24T11:39:45.092Z,61.39
2017-09-24T11:42:14.194Z,57.90
2017-09-24T11:44:42.527Z,59.09
2017-09-24T11:47:10.884Z,63.05
2017-09-24T11:49:39.231Z,61.80
2017-09-24T11:52:07.566Z,58.30
2017-09-24T11:54:36.055Z,57.81
2017-09-24T11:57:04.396Z,58.99
2017-09-24T11:59:32.736Z,58.56
2017-09-24T12:02:01.096Z,57.93
2017-09-24T12:04:29.456Z,57.51
2017-09-24T12:06:57.795Z,57.23
2017-09-24T12:09:26.152Z,53.86
2017-09-24T12:11:55.263Z,53.82
2017-09-24T12:14:24.440Z,53.02
2017-09-24T12:16:52.909Z,53.43
2017-09-24T12:19:21.339Z,55.73
2017-09-24T12:21:49.701Z,54.62
2017-09-24T12:24:18.810Z,54.43
2017-09-24T12:26:47.931Z,53.92
2017-09-24T12:29:16.287Z,53.66
2017-09-24T12:31:45.434Z,52.77
2017-09-24T12:34:13.899Z,51.13
2017-09-24T12:36:42.231Z,53.88
2017-09-24T12:39:10.624Z,52.59
2017-09-24T12:41:39.715Z,52.50
2017-09-24T12:44:08.817Z,52.78
2017-09-24T12:46:37.943Z,55.03
2017-09-24T12:49:06.272Z,55.19
2017-09-24T12:51:34.614Z,54.29
2017-09-24T12:54:02.979Z,54.29
2017-09-24T12:56:31.307Z,53.07
2017-09-24T12:58:59.655Z,52.26
2017-09-24T13:01:28.008Z,50.83
2017-09-24T13:03:57.106Z,50.85
2017-09-24T13:06:26.202Z,48.97
2017-09-24T13:08:55.336Z,46.98
2017-09-24T13:11:23.673Z,46.18
2017-09-24T13:13:52.763Z,46.29
2017-09-24T13:16:21.125Z,46.31
2017-09-24T13:18:49.455Z,46.68
2017-09-24T13:21:17.786Z,45.28
2017-09-24T13:23:46.143Z,43.47
2017-09-24T13:26:14.511Z,42.57
2017-09-24T13:28:42.862Z,43.64
2017-09-24T13:31:11.956Z,43.84
2017-09-24T13:33:41.054Z,45.12
2017-09-24T13:36:10.192Z,47.82
2017-09-24T13:38:38.528Z,49.08
2017-09-24T13:41:07.620Z,50.06
2017-09-24T13:43:36.767Z,50.29
2017-09-24T13:46:05.099Z,52.04
2017-09-24T13:48:34.204Z,51.23
2017-09-24T13:51:03.336Z,50.19
2017-09-24T13:53:31.670Z,49.33
2017-09-24T13:56:00.781Z,48.83
2017-09-24T13:58:29.911Z,49.71
2017-09-24T14:00:58.239Z,50.90
2017-09-24T14:03:26.591Z,52.07
2017-09-24T14:05:55.721Z,50.30
2017-09-24T14:08:24.836Z,51.80
2017-09-24T14:10:53.939Z,52.89
2017-09-24T14:13:23.123Z,53.53
2017-09-24T14:15:52.228Z,52.90
2017-09-24T14:18:21.328Z,54.80
2017-09-24T14:20:51.376Z,52.56
2017-09-24T14:23:19.722Z,53.53
2017-09-24T14:25:48.827Z,49.64
2017-09-24T14:28:17.956Z,46.20
2017-09-24T14:30:46.308Z,46.46
2017-09-24T14:33:15.403Z,47.02
2017-09-24T14:35:44.533Z,45.75
2017-09-24T14:38:12.874Z,48.35
2017-09-24T14:40:41.972Z,48.04
2017-09-24T14:43:11.100Z,47.97
2017-09-24T14:45:39.428Z,50.47
2017-09-24T14:48:07.784Z,51.10
2017-09-24T14:50:36.113Z,51.73
2017-09-24T14:53:05.214Z,51.03
2017-09-24T14:55:34.354Z,48.82
2017-09-24T14:58:02.687Z,49.03
2017-09-24T15:00:31.787Z,49.54
2017-09-24T15:03:00.908Z,50.37
2017-09-24T15:05:29.264Z,49.75
2017-09-24T15:07:58.364Z,51.18
2017-09-24T15:10:27.459Z,50.69
2017-09-24T15:12:56.605Z,50.62
2017-09-24T15:15:24.956Z,50.77
2017-09-24T15:17:53.300Z,50.49
2017-09-24T15:20:21.796Z,51.83
2017-09-24T15:22:52.177Z,52.49
2017-09-24T15:25:20.545Z,52.43
2017-09-24T15:27:48.876Z,53.67
2017-09-24T15:30:17.238Z,54.08
2017-09-24T15:32:45.564Z,54.67
2017-09-24T15:35:14.698Z,55.77
2017-09-24T15:37:43.045Z,56.60
2017-09-24T15:40:11.387Z,58.04
2017-09-24T15:42:39.752Z,60.00
2017-09-24T15:45:08.091Z,61.45
2017-09-24T15:47:36.440Z,62.36
2017-09-24T15:50:05.577Z,63.06
2017-09-24T15:52:33.937Z,63.86
2017-09-24T15:55:03.033Z,64.23
2017-09-24T15:57:32.163Z,65.20
2017-09-24T16:00:00.499Z,65.64
2017-09-24T16:02:29.623Z,66.21
2017-09-24T16:04:57.951Z,66.88
2017-09-24T16:07:26.285Z,66.99
2017-09-24T16:09:54.645Z,67.17
2017-09-24T16:12:23.762Z,67.84
2017-09-24T16:14:52.107Z,68.20
2017-09-24T16:17:20.472Z,69.21
2017-09-24T16:19:48.819Z,69.13
2017-09-24T16:22:17.196Z,69.99
2017-09-24T16:24:45.536Z,70.35
2017-09-24T16:27:14.630Z,70.23
2017-09-24T16:29:43.779Z,70.22
2017-09-24T16:32:12.112Z,70.71
2017-09-24T16:34:40.469Z,71.19
2017-09-24T16:37:08.800Z,71.17
2017-09-24T16:39:37.143Z,71.02
2017-09-24T16:42:05.505Z,71.56
2017-09-24T16:44:33.835Z,71.49
2017-09-24T16:47:02.168Z,71.69
2017-09-24T16:49:30.537Z,71.82
2017-09-24T16:51:58.871Z,71.93
2017-09-24T16:54:27.978Z,72.09
2017-09-24T16:56:56.533Z,72.17
2017-09-24T16:59:24.867Z,72.67
2017-09-24T17:01:53.208Z,72.74
2017-09-24T17:04:22.346Z,72.75
2017-09-24T17:06:50.676Z,73.20
2017-09-24T17:09:19.007Z,73.74
2017-09-24T17:11:47.368Z,73.71
2017-09-24T17:14:15.699Z,73.51
2017-09-24T17:16:44.069Z,73.69
2017-09-24T17:19:12.406Z,73.43
2017-09-24T17:21:40.775Z,73.88
2017-09-24T17:24:09.887Z,74.51
2017-09-24T17:26:38.230Z,74.52
2017-09-24T17:29:06.601Z,74.51
2017-09-24T17:31:34.980Z,74.55
2017-09-24T17:34:03.318Z,74.96
2017-09-24T17:36:31.660Z,74.78
2017-09-24T17:39:00.792Z,75.12
2017-09-24T17:41:29.138Z,75.03
2017-09-24T17:43:58.279Z,75.69
2017-09-24T17:46:26.626Z,75.68
2017-09-24T17:48:55.770Z,75.68
2017-09-24T17:51:24.117Z,75.90
2017-09-24T17:53:52.464Z,76.00
2017-09-24T17:56:20.833Z,76.13
2017-09-24T17:58:49.184Z,76.17
2017-09-24T18:01:17.533Z,76.24
2017-09-24T18:03:45.910Z,76.43
2017-09-24T18:06:15.033Z,76.44
2017-09-24T18:08:43.366Z,76.68
2017-09-24T18:11:11.881Z,76.79
2017-09-24T18:13:40.207Z,76.76
2017-09-24T18:16:08.597Z,76.94
2017-09-24T18:18:36.943Z,76.74
2017-09-24T18:21:05.287Z,77.08
2017-09-24T18:23:34.425Z,77.07
2017-09-24T18:26:02.758Z,77.15
2017-09-24T18:28:31.855Z,77.63
2017-09-24T18:31:00.985Z,77.66
2017-09-24T18:33:29.331Z,77.60
2017-09-24T18:35:58.431Z,77.57
2017-09-24T18:38:27.586Z,77.85
2017-09-24T18:40:55.924Z,77.72
2017-09-24T18:43:25.046Z,77.91
2017-09-24T18:45:53.408Z,78.47
2017-09-24T18:48:21.757Z,78.37
2017-09-24T18:50:50.129Z,78.49
2017-09-24T18:53:18.536Z,78.54
2017-09-24T18:55:47.653Z,78.40
2017-09-24T18:58:15.982Z,78.85
2017-09-24T19:00:44.347Z,78.78
2017-09-24T19:03:12.694Z,79.45
2017-09-24T19:05:41.036Z,79.76
2017-09-24T19:08:09.388Z,80.19
2017-09-24T19:10:37.731Z,80.39
2017-09-24T19:13:06.065Z,80.88
2017-09-24T19:15:34.430Z,79.96
2017-09-24T19:18:02.765Z,79.57
2017-09-24T19:20:31.886Z,79.68
2017-09-24T19:23:00.250Z,79.40
2017-09-24T19:25:28.615Z,79.14
2017-09-24T19:27:57.724Z,79.25
2017-09-24T19:30:26.859Z,79.16
2017-09-24T19:32:55.210Z,79.06
2017-09-24T19:35:23.574Z,79.35
2017-09-24T19:37:52.683Z,79.18
2017-09-24T19:40:21.030Z,79.00
2017-09-24T19:42:49.388Z,79.35
2017-09-24T19:45:17.749Z,79.29
2017-09-24T19:47:46.092Z,79.25
2017-09-24T19:50:15.227Z,79.44
2017-09-24T19:52:43.571Z,79.72
2017-09-24T19:55:12.686Z,79.70
2017-09-24T19:57:41.063Z,79.82
2017-09-24T20:00:09.405Z,80.01
2017-09-24T20:02:37.792Z,79.87
2017-09-24T20:05:06.127Z,80.31
2017-09-24T20:07:34.481Z,80.38
2017-09-24T20:10:03.584Z,80.61
2017-09-24T20:12:31.930Z,80.62
2017-09-24T20:15:00.293Z,80.44
2017-09-24T20:17:28.630Z,80.42
2017-09-24T20:19:56.968Z,80.86
2017-09-24T20:22:25.323Z,80.38
2017-09-24T20:24:54.429Z,80.61
2017-09-24T20:27:22.756Z,80.83
2017-09-24T20:29:51.888Z,80.80
2017-09-24T20:32:20.244Z,80.89
2017-09-24T20:34:48.615Z,80.79
2017-09-24T20:37:17.041Z,80.81
2017-09-24T20:39:45.391Z,81.23
2017-09-24T20:42:13.765Z,80.99
2017-09-24T20:44:42.102Z,81.03
2017-09-24T20:47:10.469Z,81.36
2017-09-24T20:49:38.807Z,81.47
2017-09-24T20:52:07.147Z,81.06
2017-09-24T20:54:35.513Z,81.17
2017-09-24T20:57:03.875Z,81.28
2017-09-24T20:59:32.223Z,81.10
2017-09-24T21:02:00.592Z,81.36
2017-09-24T21:04:29.688Z,81.64
2017-09-24T21:06:58.787Z,81.49
2017-09-24T21:09:27.918Z,81.44
2017-09-24T21:11:56.252Z,82.03
2017-09-24T21:14:24.591Z,81.99
2017-09-24T21:16:52.952Z,81.99
2017-09-24T21:19:21.280Z,82.61
2017-09-24T21:21:49.628Z,82.50
2017-09-24T21:24:18.035Z,82.33
2017-09-24T21:26:46.377Z,82.54
2017-09-24T21:29:14.738Z,82.62
2017-09-24T21:31:43.117Z,82.69
2017-09-24T21:34:11.460Z,83.18
2017-09-24T21:36:39.794Z,83.24
2017-09-24T21:39:08.159Z,83.36
2017-09-24T21:41:37.257Z,83.68
2017-09-24T21:44:05.665Z,83.01
2017-09-24T21:46:33.998Z,82.97
2017-09-24T21:49:03.103Z,83.81
2017-09-24T21:51:32.245Z,84.10
2017-09-24T21:54:00.595Z,83.98
2017-09-24T21:56:28.964Z,84.03
2017-09-24T21:58:58.072Z,84.14
2017-09-24T22:01:26.442Z,84.78
2017-09-24T22:03:55.548Z,85.13
2017-09-24T22:06:24.646Z,85.53
2017-09-24T22:08:53.768Z,85.65
2017-09-24T22:11:22.108Z,85.04
2017-09-24T22:13:51.240Z,84.24
2017-09-24T22:16:19.584Z,84.23
2017-09-24T22:18:47.938Z,84.78
2017-09-24T22:21:16.304Z,84.26
2017-09-24T22:23:45.404Z,83.74
2017-09-24T22:26:13.757Z,83.43
2017-09-24T22:28:42.123Z,83.11
2017-09-24T22:31:11.327Z,82.95
2017-09-24T22:33:40.445Z,82.67
2017-09-24T22:36:08.807Z,82.47
2017-09-24T22:38:37.160Z,82.68
2017-09-24T22:41:05.509Z,82.74
2017-09-24T22:43:33.875Z,82.77
2017-09-24T22:46:02.227Z,82.81
2017-09-24T22:48:30.565Z,82.66
2017-09-24T22:50:58.945Z,82.70
2017-09-24T23:08:44.148Z,82.94
2017-09-24T23:11:14.296Z,83.27
2017-09-24T23:13:43.402Z,83.21
2017-09-24T23:16:11.760Z,83.21
2017-09-24T23:18:40.873Z,83.17
2017-09-24T23:21:09.224Z,83.46
2017-09-24T23:23:37.583Z,83.23
2017-09-24T23:26:05.919Z,83.27
2017-09-24T23:28:34.267Z,83.15
2017-09-24T23:31:02.636Z,83.22
2017-09-24T23:33:30.985Z,83.09
2017-09-24T23:35:59.335Z,83.26
2017-09-24T23:38:28.465Z,83.40
2017-09-24T23:40:56.807Z,83.04
2017-09-24T23:43:25.903Z,83.17
2017-09-24T23:45:55.037Z,83.09
2017-09-24T23:48:23.375Z,83.07
2017-09-24T23:50:52.476Z,83.37
2017-09-24T23:53:21.600Z,83.19
2017-09-24T23:55:49.931Z,82.91
2017-09-24T23:58:18.275Z,82.76
